createdAt,value
2023-02-06T00:01:25.385Z,19.17
2023-02-06T00:03:52.822Z,17.70
2023-02-06T00:06:20.233Z,14.23
2023-02-06T00:08:47.895Z,14.18
2023-02-06T00:11:19.468Z,17.60
2023-02-06T00:13:48.582Z,14.70
2023-02-06T00:16:24.234Z,20.60
2023-02-06T00:18:52.688Z,18.55
2023-02-06T00:21:22.006Z,21.77
2023-02-06T00:23:49.785Z,18.38
2023-02-06T00:26:17.932Z,20.75
2023-02-06T00:28:46.184Z,14.85
2023-02-06T00:31:14.868Z,19.73
2023-02-06T00:33:42.991Z,18.25
2023-02-06T00:36:10.951Z,14.00
2023-02-06T00:38:38.643Z,9.93
2023-02-06T00:41:06.717Z,3.50
2023-02-06T00:43:34.240Z,23.08
2023-02-06T00:46:01.914Z,22.45
2023-02-06T00:48:29.963Z,18.63
2023-02-06T00:50:57.795Z,18.88
2023-02-06T00:53:25.171Z,18.23
2023-02-06T00:55:52.539Z,20.33
2023-02-06T00:58:20.044Z,18.88
2023-02-06T01:00:47.662Z,20.42
2023-02-06T01:03:15.114Z,21.27
2023-02-06T01:05:42.518Z,20.15
2023-02-06T01:08:10.090Z,20.73
2023-02-06T01:10:37.663Z,20.63
2023-02-06T01:13:04.986Z,2.90
2023-02-06T01:15:32.580Z,2.22
2023-02-06T01:18:01.106Z,4.57
2023-02-06T01:20:28.577Z,2.45
2023-02-06T01:22:58.456Z,2.30
2023-02-06T01:25:26.132Z,2.17
2023-02-06T01:27:53.828Z,3.30
2023-02-06T01:30:22.789Z,2.92
2023-02-06T01:32:50.513Z,3.25
2023-02-06T01:35:18.065Z,1.52
2023-02-06T01:37:45.666Z,2.78
2023-02-06T01:40:16.912Z,3.78
2023-02-06T01:42:44.557Z,3.03
2023-02-06T01:45:41.478Z,1.92
2023-02-06T01:48:13.447Z,2.15
2023-02-06T01:50:44.445Z,2.13
2023-02-06T01:53:13.202Z,2.33
2023-02-06T01:55:42.403Z,3.60
2023-02-06T01:58:14.752Z,3.70
2023-02-06T02:00:42.395Z,2.50
2023-02-06T02:03:09.979Z,4.30
2023-02-06T02:05:40.009Z,2.60
2023-02-06T02:08:17.479Z,2.20
2023-02-06T02:10:45.130Z,3.60
2023-02-06T02:13:12.795Z,1.17
2023-02-06T02:15:59.463Z,2.63
2023-02-06T02:18:48.584Z,2.38
2023-02-06T02:21:43.937Z,1.95
2023-02-06T02:24:11.470Z,2.85
2023-02-06T02:27:06.085Z,6.45
2023-02-06T02:30:03.887Z,2.28
2023-02-06T02:32:31.962Z,2.72
2023-02-06T02:35:35.433Z,3.58
2023-02-06T02:38:12.296Z,3.00
2023-02-06T02:40:58.632Z,3.30
2023-02-06T02:43:41.762Z,1.85
2023-02-06T02:46:19.287Z,2.85
2023-02-06T02:48:49.414Z,2.50
2023-02-06T02:51:17.464Z,1.80
2023-02-06T02:53:44.890Z,2.60
2023-02-06T02:56:23.728Z,3.58
2023-02-06T02:59:01.351Z,1.88
2023-02-06T03:01:59.086Z,3.83
2023-02-06T03:04:35.117Z,3.70
2023-02-06T03:07:02.647Z,2.65
2023-02-06T03:09:33.199Z,1.52
2023-02-06T03:12:09.615Z,3.75
2023-02-06T03:17:44.247Z,2.50
2023-02-06T03:20:12.614Z,1.17
2023-02-06T03:22:43.150Z,2.97
2023-02-06T03:25:14.080Z,2.70
2023-02-06T03:27:42.907Z,2.75
2023-02-06T03:30:14.355Z,2.53
2023-02-06T03:32:46.507Z,2.15
2023-02-06T03:35:20.267Z,1.25
2023-02-06T03:37:49.192Z,1.75
2023-02-06T03:40:17.388Z,1.88
2023-02-06T03:42:53.802Z,5.18
2023-02-06T03:47:54.444Z,2.80
2023-02-06T03:50:23.741Z,2.05
2023-02-06T03:52:52.343Z,2.50
2023-02-06T03:55:22.892Z,1.98
2023-02-06T03:57:54.132Z,4.32
2023-02-06T04:00:22.000Z,1.60
2023-02-06T04:02:51.866Z,2.72
2023-02-06T04:05:20.314Z,1.35
2023-02-06T04:07:48.148Z,2.13
2023-02-06T04:10:15.769Z,3.10
2023-02-06T04:12:43.110Z,2.33
2023-02-06T04:15:10.846Z,2.92
2023-02-06T04:17:53.704Z,4.60
2023-02-06T04:20:26.578Z,2.70
2023-02-06T04:22:54.081Z,2.38
2023-02-06T04:25:21.736Z,1.92
2023-02-06T04:27:49.349Z,6.45
2023-02-06T04:30:18.002Z,2.50
2023-02-06T04:32:46.540Z,3.03
2023-02-06T04:35:13.872Z,2.22
2023-02-06T04:37:41.415Z,2.90
2023-02-06T04:40:09.274Z,1.92
2023-02-06T04:42:36.941Z,1.77
2023-02-06T04:45:04.692Z,3.00
2023-02-06T04:47:32.413Z,3.72
2023-02-06T04:50:00.015Z,5.50
2023-02-06T04:52:27.678Z,1.70
2023-02-06T04:54:56.475Z,2.72
2023-02-06T04:57:24.435Z,1.40
2023-02-06T04:59:52.155Z,3.95
2023-02-06T05:02:19.731Z,2.65
2023-02-06T05:04:47.380Z,6.80
2023-02-06T05:07:14.879Z,5.55
2023-02-06T05:09:42.610Z,5.53
2023-02-06T05:12:10.644Z,9.68
2023-02-06T05:14:39.076Z,3.20
2023-02-06T05:17:06.485Z,2.80
2023-02-06T05:19:33.838Z,2.13
2023-02-06T05:22:01.569Z,5.32
2023-02-06T05:24:29.546Z,3.63
2023-02-06T05:26:58.481Z,3.22
2023-02-06T05:29:26.802Z,2.50
2023-02-06T05:31:56.881Z,5.10
2023-02-06T05:34:24.391Z,4.80
2023-02-06T05:36:51.945Z,6.57
2023-02-06T05:39:19.551Z,2.55
2023-02-06T05:41:47.285Z,11.38
2023-02-06T05:44:14.717Z,5.05
2023-02-06T05:46:42.161Z,14.23
2023-02-06T05:49:09.417Z,1.90
2023-02-06T05:51:37.023Z,12.05
2023-02-06T05:54:04.460Z,8.80
2023-02-06T05:56:31.977Z,5.18
2023-02-06T05:58:59.691Z,8.73
2023-02-06T06:01:29.278Z,16.00
2023-02-06T06:03:56.817Z,11.20
2023-02-06T06:06:24.120Z,7.68
2023-02-06T06:08:51.799Z,9.85
2023-02-06T06:11:19.749Z,6.18
2023-02-06T06:13:47.583Z,12.35
2023-02-06T06:16:15.293Z,7.13
2023-02-06T06:18:43.093Z,8.68
2023-02-06T06:21:10.714Z,12.20
2023-02-06T06:23:38.566Z,15.70
2023-02-06T06:26:06.275Z,5.65
2023-02-06T06:28:35.989Z,16.85
2023-02-06T06:31:06.061Z,8.35
2023-02-06T06:33:33.981Z,12.73
2023-02-06T06:36:01.699Z,23.67
2023-02-06T06:38:29.358Z,18.45
2023-02-06T06:40:56.541Z,21.92
2023-02-06T06:43:24.095Z,6.70
2023-02-06T06:45:52.155Z,9.05
2023-02-06T06:48:19.853Z,42.92
2023-02-06T06:50:47.230Z,14.38
2023-02-06T06:53:14.829Z,18.83
2023-02-06T06:55:42.420Z,36.25
2023-02-06T06:58:09.877Z,17.40
2023-02-06T07:00:38.676Z,13.88
2023-02-06T07:03:06.532Z,15.93
2023-02-06T07:05:34.568Z,10.90
2023-02-06T07:08:02.293Z,20.67
2023-02-06T07:10:29.907Z,32.67
2023-02-06T07:12:57.552Z,36.15
2023-02-06T07:15:25.195Z,20.80
2023-02-06T07:17:52.931Z,25.13
2023-02-06T07:20:20.427Z,31.75
2023-02-06T07:22:49.330Z,38.38
2023-02-06T07:25:18.437Z,14.02
2023-02-06T07:27:45.873Z,18.98
2023-02-06T07:30:14.228Z,26.77
2023-02-06T07:32:42.595Z,31.42
2023-02-06T07:35:10.108Z,10.93
2023-02-06T07:37:40.096Z,19.90
2023-02-06T07:40:08.052Z,44.08
2023-02-06T07:42:35.624Z,21.60
2023-02-06T07:45:03.083Z,24.55
2023-02-06T07:47:30.587Z,44.22
2023-02-06T07:49:58.209Z,24.90
2023-02-06T07:52:25.493Z,22.05
2023-02-06T07:54:53.094Z,19.40
2023-02-06T07:57:23.186Z,18.20
2023-02-06T07:59:51.022Z,19.17
2023-02-06T08:02:18.531Z,19.42
2023-02-06T08:04:48.370Z,16.50
2023-02-06T08:07:18.114Z,20.95
2023-02-06T08:09:45.950Z,20.40
2023-02-06T08:12:13.648Z,12.95
2023-02-06T08:14:41.445Z,14.35
2023-02-06T08:17:09.001Z,21.95
2023-02-06T08:19:36.772Z,17.00
2023-02-06T08:22:04.259Z,15.32
2023-02-06T08:24:31.853Z,14.10
2023-02-06T08:26:59.366Z,26.00
2023-02-06T08:29:26.979Z,19.83
2023-02-06T08:31:58.175Z,10.30
2023-02-06T08:34:26.914Z,13.70
2023-02-06T08:36:54.558Z,24.10
2023-02-06T08:39:22.343Z,24.92
2023-02-06T08:41:50.130Z,15.52
2023-02-06T08:44:18.373Z,16.50
2023-02-06T08:46:47.762Z,24.77
2023-02-06T08:49:23.008Z,13.82
2023-02-06T08:51:50.862Z,16.70
2023-02-06T08:54:21.209Z,8.90
2023-02-06T08:56:48.848Z,10.93
2023-02-06T08:59:22.505Z,17.48
2023-02-06T09:01:52.666Z,41.65
2023-02-06T09:06:49.478Z,20.23
2023-02-06T09:09:17.087Z,34.45
2023-02-06T09:11:44.680Z,21.20
2023-02-06T09:14:17.684Z,42.67
2023-02-06T09:16:45.470Z,23.33
2023-02-06T09:19:15.478Z,28.25
2023-02-06T09:21:43.007Z,24.88
2023-02-06T09:24:10.778Z,19.15
2023-02-06T09:26:57.325Z,37.15
2023-02-06T09:29:27.239Z,22.77
2023-02-06T09:31:57.487Z,18.95
2023-02-06T09:34:28.547Z,32.25
2023-02-06T09:36:58.696Z,22.45
2023-02-06T09:42:00.729Z,18.75
2023-02-06T09:44:28.386Z,21.63
2023-02-06T09:47:04.447Z,31.85
2023-02-06T09:49:40.514Z,18.88
2023-02-06T09:52:30.244Z,26.90
2023-02-06T09:55:28.672Z,29.35
2023-02-06T09:58:34.764Z,26.90
2023-02-06T10:01:17.167Z,23.02
2023-02-06T10:03:54.959Z,33.92
2023-02-06T10:06:29.653Z,19.95
2023-02-06T10:09:14.298Z,21.48
2023-02-06T10:11:51.607Z,33.83
2023-02-06T10:14:38.387Z,34.47
2023-02-06T10:17:34.205Z,35.58
2023-02-06T10:20:11.393Z,30.70
2023-02-06T10:23:02.552Z,45.13
2023-02-06T10:25:41.428Z,37.85
2023-02-06T10:28:18.661Z,31.23
2023-02-06T10:31:21.899Z,39.75
2023-02-06T10:34:15.995Z,47.72
2023-02-06T10:36:56.512Z,19.75
2023-02-06T10:40:03.863Z,36.47
2023-02-06T10:45:51.559Z,20.30
2023-02-06T10:48:30.065Z,18.27
2023-02-06T10:51:04.900Z,16.23
2023-02-06T10:53:40.533Z,30.88
2023-02-06T10:56:12.760Z,14.77
2023-02-06T10:58:53.541Z,20.73
2023-02-06T11:01:26.339Z,18.85
2023-02-06T11:04:22.011Z,20.27
2023-02-06T11:06:49.785Z,32.15
2023-02-06T11:09:17.486Z,37.65
2023-02-06T11:11:56.082Z,19.30
2023-02-06T11:14:36.061Z,39.22
2023-02-06T11:17:04.189Z,15.80
2023-02-06T11:19:42.128Z,35.70
2023-02-06T11:22:14.872Z,19.67
2023-02-06T11:25:22.371Z,22.65
2023-02-06T11:27:50.503Z,34.58
2023-02-06T11:30:34.860Z,28.17
2023-02-06T11:33:40.903Z,14.68
2023-02-06T11:36:23.150Z,12.43
2023-02-06T11:39:09.701Z,13.45
2023-02-06T11:41:40.978Z,10.25
2023-02-06T11:44:15.281Z,15.27
2023-02-06T11:46:43.161Z,16.95
2023-02-06T11:49:31.548Z,16.50
2023-02-06T11:52:00.123Z,12.77
2023-02-06T11:54:30.786Z,14.55
2023-02-06T11:57:10.583Z,14.65
2023-02-06T11:59:54.132Z,13.43
2023-02-06T12:02:33.321Z,15.85
2023-02-06T12:05:15.260Z,21.40
2023-02-06T12:08:10.790Z,12.98
2023-02-06T12:10:42.607Z,14.85
2023-02-06T12:13:21.025Z,10.93
2023-02-06T12:15:54.798Z,14.13
2023-02-06T12:18:37.073Z,21.10
2023-02-06T12:21:19.075Z,14.38
2023-02-06T12:23:53.081Z,21.25
2023-02-06T12:26:24.541Z,19.85
2023-02-06T12:29:15.617Z,15.05
2023-02-06T12:32:07.499Z,17.13
2023-02-06T12:34:52.276Z,18.17
2023-02-06T12:37:22.934Z,18.13
2023-02-06T12:39:53.120Z,20.15
2023-02-06T12:42:43.584Z,18.85
2023-02-06T12:45:47.109Z,18.42
2023-02-06T12:48:18.005Z,14.13
2023-02-06T12:51:06.504Z,20.77
2023-02-06T12:53:48.775Z,27.15
2023-02-06T12:56:40.910Z,25.80
2023-02-06T12:59:11.785Z,25.85
2023-02-06T13:02:07.117Z,32.45
2023-02-06T13:04:37.810Z,38.88
2023-02-06T13:07:10.004Z,34.85
2023-02-06T13:10:01.372Z,32.22
2023-02-06T13:12:32.718Z,35.92
2023-02-06T13:15:06.152Z,24.60
2023-02-06T13:17:33.715Z,35.97
2023-02-06T13:20:11.963Z,29.45
2023-02-06T13:22:46.032Z,24.20
2023-02-06T13:25:31.784Z,30.15
2023-02-06T13:28:06.374Z,32.97
2023-02-06T13:30:35.436Z,24.70
2023-02-06T13:33:18.910Z,29.17
2023-02-06T13:36:01.055Z,28.35
2023-02-06T13:38:49.747Z,20.52
2023-02-06T13:44:07.095Z,25.83
2023-02-06T13:47:06.595Z,33.40
2023-02-06T13:49:56.150Z,30.45
2023-02-06T13:52:26.826Z,28.42
2023-02-06T13:55:13.784Z,32.53
2023-02-06T13:57:53.568Z,23.63
2023-02-06T14:00:24.514Z,30.23
2023-02-06T14:02:55.535Z,32.38
2023-02-06T14:06:00.530Z,20.48
2023-02-06T14:08:48.495Z,23.60
2023-02-06T14:14:55.887Z,33.42
2023-02-06T14:17:52.419Z,34.47
2023-02-06T14:20:29.134Z,35.80
2023-02-06T14:23:25.376Z,18.15
2023-02-06T14:25:53.475Z,26.02
2023-02-06T14:28:39.496Z,30.73
2023-02-06T14:31:44.968Z,32.38
2023-02-06T14:34:50.690Z,21.33
2023-02-06T14:37:31.646Z,17.27
2023-02-06T14:40:04.484Z,21.70
2023-02-06T14:42:38.613Z,17.25
2023-02-06T14:45:42.093Z,25.73
2023-02-06T14:48:30.960Z,29.00
2023-02-06T14:50:59.658Z,18.95
2023-02-06T14:53:39.059Z,22.20
2023-02-06T14:56:25.462Z,15.45
2023-02-06T14:58:56.257Z,16.45
2023-02-06T15:01:29.913Z,22.95
2023-02-06T15:04:15.281Z,16.55
2023-02-06T15:06:50.720Z,28.90
2023-02-06T15:09:34.822Z,22.80
2023-02-06T15:12:19.297Z,14.30
2023-02-06T15:15:18.039Z,19.00
2023-02-06T15:18:18.028Z,25.65
2023-02-06T15:20:52.648Z,17.60
2023-02-06T15:23:42.806Z,16.45
2023-02-06T15:26:43.618Z,14.25
2023-02-06T15:29:23.795Z,15.25
2023-02-06T15:32:00.676Z,32.65
2023-02-06T15:34:28.618Z,17.25
2023-02-06T15:36:56.309Z,18.40
2023-02-06T15:39:25.178Z,14.60
2023-02-06T15:41:53.790Z,24.33
2023-02-06T15:44:38.256Z,17.95
2023-02-06T15:47:14.046Z,20.20
2023-02-06T15:49:45.585Z,21.05
2023-02-06T15:52:15.145Z,19.05
2023-02-06T15:54:45.130Z,24.15
2023-02-06T15:57:36.406Z,12.48
2023-02-06T16:00:09.583Z,12.57
2023-02-06T16:02:39.396Z,13.07
2023-02-06T16:05:07.543Z,12.93
2023-02-06T16:07:39.225Z,19.63
2023-02-06T16:10:31.015Z,10.25
2023-02-06T16:13:01.839Z,16.50
2023-02-06T16:15:33.269Z,9.25
2023-02-06T16:18:19.371Z,12.38
2023-02-06T16:20:52.106Z,16.88
2023-02-06T16:23:25.508Z,11.57
2023-02-06T16:26:02.044Z,11.48
2023-02-06T16:28:33.431Z,13.93
2023-02-06T16:31:04.755Z,11.43
2023-02-06T16:33:42.936Z,13.48
2023-02-06T16:36:15.786Z,15.00
2023-02-06T16:38:57.704Z,9.30
2023-02-06T16:41:34.506Z,12.32
2023-02-06T16:44:03.494Z,16.38
2023-02-06T16:46:31.497Z,9.88
2023-02-06T16:49:00.384Z,9.30
2023-02-06T16:51:30.093Z,6.75
2023-02-06T16:53:58.381Z,8.13
2023-02-06T16:56:26.318Z,11.13
2023-02-06T16:58:56.662Z,8.95
2023-02-06T17:01:29.815Z,7.60
2023-02-06T17:03:57.729Z,6.30
2023-02-06T17:06:28.929Z,7.38
2023-02-06T17:09:03.835Z,8.90
2023-02-06T17:11:32.225Z,9.25
2023-02-06T17:14:00.835Z,10.63
2023-02-06T17:16:34.407Z,9.70
2023-02-06T17:19:02.397Z,6.88
2023-02-06T17:21:32.849Z,7.63
2023-02-06T17:24:00.821Z,7.20
2023-02-06T17:26:30.978Z,5.80
2023-02-06T17:31:31.966Z,7.30
2023-02-06T17:33:59.757Z,4.80
2023-02-06T17:36:32.515Z,4.97
2023-02-06T17:39:00.904Z,6.38
2023-02-06T17:41:30.737Z,5.07
2023-02-06T17:43:58.755Z,6.18
2023-02-06T17:46:26.741Z,5.45
2023-02-06T17:48:54.774Z,7.95
2023-02-06T17:51:22.779Z,4.82
2023-02-06T17:53:51.890Z,10.07
2023-02-06T17:56:20.565Z,7.18
2023-02-06T17:58:50.883Z,5.78
2023-02-06T18:01:22.118Z,4.53
2023-02-06T18:03:50.529Z,6.00
2023-02-06T18:06:19.780Z,5.68
2023-02-06T18:08:48.046Z,4.65
2023-02-06T18:11:20.324Z,5.35
2023-02-06T18:13:50.059Z,5.35
2023-02-06T18:16:22.958Z,6.28
2023-02-06T18:18:51.288Z,6.00
2023-02-06T18:21:20.715Z,4.82
2023-02-06T18:23:51.429Z,7.22
2023-02-06T18:26:19.506Z,6.05
2023-02-06T18:28:47.189Z,4.75
2023-02-06T18:31:33.430Z,6.20
2023-02-06T18:34:04.566Z,6.20
2023-02-06T18:36:32.299Z,5.20
2023-02-06T18:39:01.437Z,5.90
2023-02-06T18:41:47.575Z,4.80
2023-02-06T18:44:15.672Z,4.35
2023-02-06T18:46:46.468Z,6.85
2023-02-06T18:49:14.510Z,3.72
2023-02-06T18:51:45.953Z,7.45
2023-02-06T18:54:13.755Z,6.28
2023-02-06T18:56:41.731Z,11.45
2023-02-06T18:59:09.603Z,3.85
2023-02-06T19:01:38.899Z,5.07
2023-02-06T19:04:06.756Z,5.28
2023-02-06T19:06:39.507Z,5.22
2023-02-06T19:09:13.396Z,5.03
2023-02-06T19:11:42.594Z,6.68
2023-02-06T19:14:15.233Z,5.72
2023-02-06T19:16:44.721Z,4.32
2023-02-06T19:19:15.159Z,4.60
2023-02-06T19:21:44.359Z,3.53
2023-02-06T19:24:15.893Z,3.85
2023-02-06T19:26:44.147Z,3.60
2023-02-06T19:29:15.176Z,3.80
2023-02-06T19:31:42.987Z,4.50
2023-02-06T19:34:12.337Z,3.08
2023-02-06T19:36:40.347Z,3.72
2023-02-06T19:39:09.557Z,4.05
2023-02-06T19:41:37.752Z,3.60
2023-02-06T19:44:10.456Z,5.50
2023-02-06T19:46:38.760Z,10.05
2023-02-06T19:49:08.785Z,13.60
2023-02-06T19:51:40.804Z,10.02
2023-02-06T19:54:12.679Z,3.55
2023-02-06T19:56:46.161Z,4.50
2023-02-06T19:59:22.479Z,7.78
2023-02-06T20:04:19.997Z,3.90
2023-02-06T20:06:49.350Z,11.10
2023-02-06T20:09:17.210Z,2.92
2023-02-06T20:11:46.273Z,4.47
2023-02-06T20:14:17.679Z,3.03
2023-02-06T20:16:49.343Z,3.10
2023-02-06T20:19:27.162Z,3.47
2023-02-06T20:22:00.844Z,4.50
2023-02-06T20:24:31.381Z,2.40
2023-02-06T20:27:01.925Z,2.75
2023-02-06T20:29:32.558Z,2.50
2023-02-06T20:32:03.152Z,2.13
2023-02-06T20:34:32.074Z,2.63
2023-02-06T20:37:00.114Z,2.92
2023-02-06T20:39:28.608Z,3.65
2023-02-06T20:41:56.703Z,3.15
2023-02-06T20:44:27.370Z,3.13
2023-02-06T20:46:58.276Z,5.30
2023-02-06T20:49:28.722Z,2.90
2023-02-06T20:51:56.821Z,4.13
2023-02-06T20:54:25.152Z,2.72
2023-02-06T20:56:53.972Z,4.75
2023-02-06T20:59:23.854Z,2.22
2023-02-06T21:01:52.193Z,6.07
2023-02-06T21:04:21.211Z,2.78
2023-02-06T21:06:51.361Z,4.22
2023-02-06T21:11:52.166Z,4.32
2023-02-06T21:16:54.189Z,3.92
2023-02-06T21:19:22.489Z,2.33
2023-02-06T21:21:50.688Z,4.35
2023-02-06T21:24:21.757Z,2.45
2023-02-06T21:26:50.009Z,3.38
2023-02-06T21:29:17.790Z,2.38
2023-02-06T21:31:46.374Z,2.22
2023-02-06T21:34:20.108Z,2.70
2023-02-06T21:36:51.463Z,3.33
2023-02-06T21:39:22.335Z,2.33
2023-02-06T21:41:53.927Z,3.38
2023-02-06T21:44:24.042Z,2.17
2023-02-06T21:49:23.640Z,2.00
2023-02-06T21:51:51.601Z,3.90
2023-02-06T21:54:19.618Z,2.13
2023-02-06T21:56:48.014Z,4.68
2023-02-06T21:59:15.809Z,2.20
2023-02-06T22:01:43.809Z,1.98
2023-02-06T22:04:12.211Z,2.30
2023-02-06T22:06:40.329Z,3.72
2023-02-06T22:09:10.796Z,3.03
2023-02-06T22:11:39.977Z,3.17
2023-02-06T22:14:18.187Z,3.33
2023-02-06T22:16:48.894Z,5.65
2023-02-06T22:19:19.133Z,2.78
2023-02-06T22:21:48.057Z,3.45
2023-02-06T22:24:16.044Z,1.45
2023-02-06T22:26:45.478Z,3.78
2023-02-06T22:29:18.009Z,2.53
2023-02-06T22:31:46.231Z,2.47
2023-02-06T22:34:19.641Z,1.60
2023-02-06T22:36:51.173Z,6.57
2023-02-06T22:39:19.307Z,3.15
2023-02-06T22:41:47.448Z,4.60
2023-02-06T22:44:16.792Z,2.47
2023-02-06T22:46:46.721Z,4.57
2023-02-06T22:49:15.031Z,2.88
2023-02-06T22:51:44.665Z,3.08
2023-02-06T22:54:13.084Z,2.30
2023-02-06T22:56:44.271Z,3.53
2023-02-06T22:59:19.018Z,2.65
2023-02-06T23:01:54.376Z,3.90
2023-02-06T23:04:24.704Z,2.05
2023-02-06T23:06:52.645Z,2.53
2023-02-06T23:09:25.892Z,1.92
2023-02-06T23:11:54.793Z,3.28
2023-02-06T23:14:23.621Z,1.92
2023-02-06T23:16:52.764Z,3.88
2023-02-06T23:19:20.839Z,2.70
2023-02-06T23:21:51.408Z,3.47
2023-02-06T23:24:20.190Z,3.38
2023-02-06T23:26:50.510Z,1.98
2023-02-06T23:29:19.604Z,1.23
2023-02-06T23:31:48.014Z,3.10
2023-02-06T23:34:16.678Z,1.75
2023-02-06T23:36:44.694Z,3.40
2023-02-06T23:39:12.529Z,3.30
2023-02-06T23:41:40.474Z,3.97
2023-02-06T23:44:09.124Z,4.05
2023-02-06T23:46:38.871Z,3.28
2023-02-06T23:49:10.405Z,1.90
2023-02-06T23:51:38.220Z,2.67
2023-02-06T23:54:09.897Z,1.80
2023-02-06T23:56:38.392Z,2.22
2023-02-06T23:59:06.870Z,2.40
